Latest Weather Observations for Mount William

IDV60801

Issued at 5:52 pm EST Tuesday 20 August 2019 (issued every 10 minutes, with the page automatically refreshed every 10 minutes)

About weather observations | Map of weather stations | Latest weather observations for VIC | Other Formats
Station Details ID: 079103 Name: MOUNT WILLIAM Lat: -37.30 Lon: 142.60 Height: 1150.0 m
Data from the previous 72 hours. | See also: Recent months at Mount William
Date/Time
EST
Temp
°C
App
Temp
°C
Dew
Point
°C
Rel
Hum
%
Delta-T
°C
Wind Press
QNH
hPa
Press
MSL
hPa
Rain since
9am
mm
Dir  Spd
km/h
Gust
km/h
Spd
kts
Gust
kts
20/05:30pm 3.5 -5.7 3.5 100 0.0 WSW 41 70 22 38 - - 0.4
20/05:00pm 3.6 -6.9 3.6 100 0.0 WSW 48 82 26 44 - - 0.4
20/04:57pm 3.8 -6.7 3.8 100 0.0 WSW 48 82 26 44 - - 0.4
20/04:30pm 4.6 -4.0 4.6 100 0.0 WSW 39 63 21 34 - - 0.4
20/04:00pm 4.8 -4.2 4.8 100 0.0 WSW 41 65 22 35 - - 0.4
20/03:30pm 5.0 -3.2 5.0 100 0.0 WSW 37 65 20 35 - - 0.2
20/03:00pm 4.9 -1.9 4.9 100 0.0 W 30 65 16 35 - - 0.2
20/02:49pm 4.8 -3.0 4.8 100 0.0 W 35 72 19 39 - - 0.2
20/02:30pm 4.7 -2.8 4.7 100 0.0 W 33 52 18 28 - - 0.2
20/02:00pm 4.5 -3.4 4.5 100 0.0 W 35 56 19 30 - - 0.2
20/01:30pm 4.3 -3.6 4.3 100 0.0 W 35 61 19 33 - - 0.2
20/01:00pm 4.2 -3.3 4.2 100 0.0 W 33 56 18 30 - - 0.2
20/12:35pm 3.9 -4.1 3.9 100 0.0 W 35 54 19 29 - - 0.2
20/12:30pm 3.9 -4.1 3.9 100 0.0 W 35 52 19 28 - - 0.2
20/12:00pm 3.7 -5.1 3.7 100 0.0 W 39 57 21 31 - - 0.2
20/11:37am 3.5 -5.7 3.5 100 0.0 W 41 61 22 33 - - 0.2
20/11:30am 3.5 -5.7 3.5 100 0.0 W 41 57 22 31 - - 0.2
20/11:08am 3.2 -6.4 3.2 100 0.0 W 43 63 23 34 - - 0.2
20/11:00am 3.1 -6.7 3.1 100 0.0 WSW 44 59 24 32 - - 0.2
20/10:30am 2.7 -6.6 2.7 100 0.0 WSW 41 61 22 33 - - 0.2
20/10:17am 2.7 -7.6 2.7 100 0.0 WSW 46 65 25 35 - - 0.2
20/10:00am 2.6 -8.8 2.6 100 0.0 WSW 52 69 28 37 - - 0.2
20/09:30am 2.4 -9.8 2.4 100 0.0 W 56 69 30 37 - - 0.0
20/09:00am 2.2 -8.6 2.2 100 0.0 W 48 63 26 34 - - 19.2
20/08:32am 1.9 -9.3 1.9 100 0.0 W 50 69 27 37 - - 19.2
20/08:30am 1.9 -9.7 1.9 100 0.0 W 52 70 28 38 - - 19.2
20/08:00am 1.6 -10.8 1.6 100 0.0 WSW 56 76 30 41 - - 19.2
20/07:30am 1.7 -7.8 1.7 100 0.0 WSW 41 65 22 35 - - 19.2
20/07:00am 1.7 -7.8 1.7 100 0.0 WSW 41 67 22 36 - - 19.2
20/06:30am 1.7 -8.4 1.7 100 0.0 WSW 44 65 24 35 - - 19.2
20/06:00am 2.0 -8.4 2.0 100 0.0 WSW 46 74 25 40 - - 19.0
20/05:30am 1.8 -9.4 1.8 100 0.0 WSW 50 72 27 39 - - 18.8
20/05:00am 1.6 -9.6 1.6 100 0.0 WSW 50 72 27 39 - - 18.8
20/04:30am 1.4 -10.2 1.4 100 0.0 WSW 52 78 28 42 - - 18.8
20/04:00am 1.5 -9.4 1.5 100 0.0 WSW 48 72 26 39 - - 18.8
20/03:30am 1.3 -7.9 1.3 100 0.0 WSW 39 63 21 34 - - 18.8
20/03:00am 1.2 -9.0 1.2 100 0.0 WSW 44 76 24 41 - - 18.6
20/02:30am 1.4 -7.8 1.4 100 0.0 WSW 39 65 21 35 - - 18.6
20/02:00am 1.4 -6.1 1.4 100 0.0 WSW 30 54 16 29 - - 18.2
20/01:30am 1.2 -6.7 1.2 100 0.0 WSW 32 57 17 31 - - 18.2
20/01:00am 1.3 -6.2 1.3 100 0.0 WSW 30 57 16 31 - - 18.2
20/12:30am 1.2 -5.9 1.2 100 0.0 WSW 28 67 15 36 - - 18.0
20/12:00am 1.1 -6.8 1.1 100 0.0 WSW 32 61 17 33 - - 18.0
 
Date/Time
EST
Temp
°C
App
Temp
°C
Dew
Point
°C
Rel
Hum
%
Delta-T
°C
Wind Press
QNH
hPa
Press
MSL
hPa
Rain since
9am
mm
Dir  Spd
km/h
Gust
km/h
Spd
kts
Gust
kts
19/11:30pm 1.1 -7.7 1.1 100 0.0 WSW 37 63 20 34 - - 18.0
19/11:00pm 1.3 -7.1 1.3 100 0.0 WSW 35 61 19 33 - - 17.8
19/10:30pm 1.2 -7.6 1.2 100 0.0 WSW 37 63 20 34 - - 17.6
19/10:00pm 1.2 -6.3 1.2 100 0.0 WSW 30 54 16 29 - - 17.4
19/09:30pm 1.1 -6.8 1.1 100 0.0 WSW 32 56 17 30 - - 17.2
19/09:00pm 1.0 -6.2 1.0 100 0.0 WSW 28 56 15 30 - - 17.2
19/08:40pm 0.9 -6.3 0.9 100 0.0 WSW 28 52 15 28 - - 17.2
19/08:30pm 1.0 -5.8 1.0 100 0.0 WSW 26 41 14 22 - - 17.0
19/08:00pm 0.9 -5.5 0.9 100 0.0 WSW 24 46 13 25 - - 16.8
19/07:43pm 0.9 -7.0 0.9 100 0.0 WSW 32 54 17 29 - - 16.6
19/07:30pm 0.9 -5.5 0.9 100 0.0 WSW 24 43 13 23 - - 16.6
19/07:00pm 0.9 -6.3 0.9 100 0.0 W 28 46 15 25 - - 16.2
19/06:49pm 0.8 -6.4 0.8 100 0.0 WSW 28 50 15 27 - - 16.0
19/06:30pm 0.8 -5.2 0.8 100 0.0 WSW 22 39 12 21 - - 16.0
19/06:00pm 0.8 -3.9 0.8 100 0.0 WSW 15 28 8 15 - - 15.6
19/05:30pm 0.9 -4.6 0.9 100 0.0 WSW 19 39 10 21 - - 15.2
19/05:00pm 1.0 -3.3 1.0 100 0.0 W 13 30 7 16 - - 14.6
19/04:30pm 1.0 -3.3 1.0 100 0.0 WNW 13 37 7 20 - - 14.0
19/04:00pm 0.9 -4.6 0.9 100 0.0 W 19 37 10 20 - - 13.0
19/03:30pm 0.6 -5.5 0.6 100 0.0 WSW 22 39 12 21 - - 11.6
19/03:00pm 0.6 -4.5 0.6 100 0.0 W 17 32 9 17 - - 10.0
19/02:30pm 0.5 -4.3 0.5 100 0.0 W 15 32 8 17 - - 8.2
19/02:00pm 0.0 -5.2 0.0 100 0.0 W 17 32 9 17 - - 5.2
19/01:30pm 0.0 -4.5 0.0 100 0.0 W 13 28 7 15 - - 1.0
19/01:00pm 0.0 -4.5 0.0 100 0.0 WNW 13 24 7 13 - - 0.2
19/12:30pm -0.1 -4.2 -0.1 100 0.0 W 11 22 6 12 - - 0.0
19/12:00pm -0.3 -4.8 -0.3 100 0.0 W 13 30 7 16 - - 0.0
19/11:30am -0.5 -5.8 -0.5 100 0.0 W 17 28 9 15 - - 0.0
19/11:00am -0.7 -7.3 -0.7 100 0.0 W 24 35 13 19 - - 0.0
19/10:30am -0.9 -6.6 -0.9 100 0.0 W 19 39 10 21 - - 0.0
19/10:00am -1.2 -7.5 -1.2 100 0.0 W 22 39 12 21 - - 0.0
19/09:30am -1.5 -7.9 -1.5 100 0.0 W 22 32 12 17 - - 0.0
19/09:00am -1.8 -8.6 -1.8 100 0.0 W 24 43 13 23 - - 5.0
19/08:30am -2.0 -8.8 -2.0 100 0.0 W 24 43 13 23 - - 5.0
19/08:00am -2.1 -8.9 -2.1 100 0.0 W 24 44 13 24 - - 5.0
19/07:30am -2.3 -7.8 -2.3 100 0.0 W 17 28 9 15 - - 5.0
19/07:00am -2.2 -7.0 -2.2 100 0.0 W 13 32 7 17 - - 5.0
19/06:30am -2.4 -8.5 -2.4 100 0.0 W 20 39 11 21 - - 5.0
19/06:00am -2.3 -8.2 -2.3 100 0.0 W 19 39 10 21 - - 5.0
19/05:30am -2.5 -8.4 -2.5 100 0.0 W 19 32 10 17 - - 5.0
19/05:00am -2.5 -7.7 -2.5 100 0.0 W 15 35 8 19 - - 5.0
19/04:30am -2.6 -9.1 -2.6 100 0.0 W 22 43 12 23 - - 5.0
19/04:00am -2.3 -7.8 -2.3 100 0.0 W 17 39 9 21 - - 5.0
19/03:30am -2.2 -7.7 -2.2 100 0.0 W 17 32 9 17 - - 5.0
19/03:00am -2.0 -6.7 -2.0 100 0.0 W 13 37 7 20 - - 5.0
19/02:30am -2.1 -8.6 -2.1 100 0.0 W 22 43 12 23 - - 5.0
19/02:00am -1.8 -7.8 -1.8 100 0.0 W 20 39 11 21 - - 5.0
19/01:30am -1.7 -7.7 -1.7 100 0.0 W 20 37 11 20 - - 5.0
19/01:00am -1.5 -7.5 -1.5 100 0.0 W 20 50 11 27 - - 5.0
19/12:30am -1.4 -8.1 -1.4 100 0.0 W 24 43 13 23 - - 5.0
19/12:00am -1.4 -8.5 -1.4 100 0.0 W 26 46 14 25 - - 5.0
 
Date/Time
EST
Temp
°C
App
Temp
°C
Dew
Point
°C
Rel
Hum
%
Delta-T
°C
Wind Press
QNH
hPa
Press
MSL
hPa
Rain since
9am
mm
Dir  Spd
km/h
Gust
km/h
Spd
kts
Gust
kts
18/11:31pm -1.4 -8.9 -1.4 100 0.0 W 28 54 15 29 - - 5.0
18/11:30pm -1.4 -8.9 -1.4 100 0.0 W 28 44 15 24 - - 5.0
18/11:02pm -1.4 -8.9 -1.4 100 0.0 W 28 46 15 25 - - 5.0
18/11:00pm -1.4 -9.3 -1.4 100 0.0 W 30 46 16 25 - - 5.0
18/10:34pm -1.5 -9.4 -1.5 100 0.0 W 30 48 16 26 - - 5.0
18/10:30pm -1.5 -9.8 -1.5 100 0.0 W 32 48 17 26 - - 5.0
18/10:00pm -2.0 -10.3 -2.0 100 0.0 W 32 56 17 30 - - 5.0
18/09:41pm -0.9 -8.3 -0.9 100 0.0 W 28 46 15 25 - - 5.0
18/09:30pm -0.8 -7.1 -0.8 100 0.0 W 22 33 12 18 - - 5.0
18/09:00pm -1.1 -9.5 -1.1 100 0.0 W 33 56 18 30 - - 5.0
18/08:30pm -0.8 -8.2 -0.8 100 0.0 W 28 46 15 25 - - 5.0
18/08:02pm -0.6 -8.0 -0.6 100 0.0 W 28 48 15 26 - - 5.0
18/08:00pm -0.7 -7.7 -0.7 100 0.0 W 26 48 14 26 - - 5.0
18/07:30pm -0.6 -8.4 -0.6 100 0.0 W 30 52 16 28 - - 5.0
18/07:00pm -0.5 -10.7 -0.5 100 0.0 WSW 43 67 23 36 - - 5.0
18/06:30pm -0.5 -8.6 -0.5 100 0.0 WSW 32 54 17 29 - - 5.0
18/06:00pm -0.4 -9.9 -0.4 100 0.0 WSW 39 69 21 37 - - 5.0
18/05:30pm -0.1 -10.3 -0.1 100 0.0 WSW 43 74 23 40 - - 5.0
18/05:00pm 0.1 -10.2 0.1 100 0.0 WSW 44 80 24 43 - - 5.0
18/04:30pm 0.8 -9.4 0.8 100 0.0 W 44 69 24 37 - - 3.8
18/04:00pm 1.1 -10.2 1.1 100 0.0 W 50 76 27 41 - - 3.6
18/03:30pm 1.4 -8.5 1.4 100 0.0 W 43 70 23 38 - - 3.6
18/03:00pm 1.6 -7.9 1.6 100 0.0 W 41 65 22 35 - - 3.6
18/02:36pm 2.2 -7.2 2.2 100 0.0 W 41 65 22 35 - - 2.4
18/02:30pm 2.4 -7.0 2.4 100 0.0 W 41 56 22 30 - - 2.4
18/02:02pm 3.0 -5.5 3.0 100 0.0 WNW 37 61 20 33 - - 1.8
18/02:00pm 3.0 -5.1 3.0 100 0.0 WNW 35 54 19 29 - - 1.8
18/01:43pm 2.9 -6.4 2.9 100 0.0 WNW 41 59 22 32 - - 1.8
18/01:30pm 3.4 -5.4 3.4 100 0.0 WNW 39 56 21 30 - - 1.8
18/01:00pm 3.4 -4.7 3.4 100 0.0 WNW 35 54 19 29 - - 0.4
18/12:59pm 3.3 -4.8 3.3 100 0.0 WNW 35 54 19 29 - - 0.4
18/12:30pm 3.1 -4.5 3.1 100 0.0 NW 32 48 17 26 - - 0.4
18/12:00pm 3.0 -5.5 3.0 100 0.0 WNW 37 54 20 29 - - 0.4
18/11:35am 3.2 -5.3 3.2 100 0.0 WNW 37 57 20 31 - - 0.4
18/11:30am 3.1 -5.4 3.1 100 0.0 WNW 37 54 20 29 - - 0.4
18/11:00am 3.3 -6.5 2.3 93 0.4 NW 43 74 23 40 - - 0.4
18/10:30am 2.6 -6.8 2.2 97 0.2 WNW 41 59 22 32 - - 0.0
18/10:11am 3.4 -5.8 1.4 87 0.8 W 39 57 21 31 - - 0.0
18/10:00am 3.4 -6.1 1.6 88 0.8 W 41 57 22 31 - - 0.0
18/09:30am 3.1 -6.8 2.5 96 0.3 W 44 74 24 40 - - 0.0
18/09:01am 3.5 -5.4 3.1 97 0.2 W 39 59 21 32 - - 0.0
18/09:00am 3.5 -5.4 2.9 96 0.3 W 39 56 21 30 - - 0.0
18/08:43am 3.6 -5.3 3.2 97 0.2 W 39 63 21 34 - - 0.0
18/08:30am 3.4 -5.2 2.5 94 0.4 W 37 48 20 26 - - 0.0
18/08:01am 4.2 -3.5 2.1 86 0.9 NW 32 54 17 29 - - 0.0
18/08:00am 4.3 -3.4 2.2 86 0.9 NW 32 44 17 24 - - 0.0
18/07:41am 4.3 -3.7 1.5 82 1.2 NW 33 52 18 28 - - 0.0
18/07:30am 4.1 -5.5 1.1 81 1.3 NW 41 54 22 29 - - 0.0
18/07:00am 4.1 -5.1 1.0 80 1.3 NW 39 56 21 30 - - 0.0
18/06:50am 4.1 -6.1 0.8 79 1.4 NNW 44 63 24 34 - - 0.0
18/06:30am 4.6 -6.8 0.7 76 1.6 N 50 78 27 42 - - 0.0
18/06:00am 5.1 -7.0 1.0 75 1.7 N 54 82 29 44 - - 0.0
18/05:30am 5.2 -6.5 1.1 75 1.7 N 52 74 28 40 - - 0.0
18/05:00am 5.1 -7.0 1.2 76 1.7 N 54 82 29 44 - - 0.0
18/04:30am 5.0 -7.4 1.3 77 1.6 N 56 78 30 42 - - 0.0
18/04:00am 5.0 -7.1 1.1 76 1.6 N 54 78 29 42 - - 0.0
18/03:30am 5.2 -6.5 1.3 76 1.7 N 52 72 28 39 - - 0.0
18/03:00am 4.4 -6.6 0.7 77 1.5 N 48 74 26 40 - - 0.0
18/02:30am 3.8 -6.3 0.3 78 1.4 N 43 70 23 38 - - 0.0
18/02:00am 3.7 -6.1 -0.1 76 1.5 N 41 65 22 35 - - 0.0
18/01:37am 3.6 -6.6 -0.4 75 1.6 N 43 63 23 34 - - 0.0
18/01:30am 3.5 -6.9 -0.3 76 1.5 N 44 57 24 31 - - 0.0
18/01:00am 3.6 -6.7 0.0 77 1.5 N 44 72 24 39 - - 0.0
18/12:30am 3.4 -5.5 0.5 81 1.2 N 37 67 20 36 - - 0.0
18/12:00am 3.4 -5.5 0.6 82 1.1 NNE 37 59 20 32 - - 0.0
 
Date/Time
EST
Temp
°C
App
Temp
°C
Dew
Point
°C
Rel
Hum
%
Delta-T
°C
Wind Press
QNH
hPa
Press
MSL
hPa
Rain since
9am
mm
Dir  Spd
km/h
Gust
km/h
Spd
kts
Gust
kts
17/11:30pm 3.2 -5.4 0.1 80 1.3 N 35 56 19 30 - - 0.0
17/11:02pm 3.0 -5.5 0.9 86 0.9 N 35 54 19 29 - - 0.0
17/11:00pm 3.0 -5.5 0.9 86 0.9 N 35 48 19 26 - - 0.0
17/10:30pm 2.8 -5.7 1.2 89 0.7 N 35 54 19 29 - - 0.0
17/10:23pm 2.6 -5.3 1.3 91 0.5 N 32 54 17 29 - - 0.0
17/10:00pm 2.5 -5.9 1.5 93 0.4 N 35 52 19 28 - - 0.0
17/09:30pm 2.3 -6.4 1.9 97 0.2 N 37 61 20 33 - - 0.0
17/09:24pm 2.1 -6.2 2.0 99 0.0 N 35 59 19 32 - - 0.0
17/09:00pm 2.1 -6.6 2.1 100 0.0 N 37 50 20 27 - - 0.0
17/08:48pm 2.0 -6.3 2.0 100 0.0 NNE 35 54 19 29 - - 0.0
17/08:30pm 2.0 -5.8 2.0 100 0.0 NNE 32 50 17 27 - - 0.0
17/08:00pm 2.1 -6.2 2.1 100 0.0 NNE 35 48 19 26 - - 0.0
17/07:30pm 2.0 -5.4 2.0 100 0.0 NNE 30 41 16 22 - - 0.0
17/07:00pm 2.2 -5.5 2.2 100 0.0 N 32 43 17 23 - - 0.0
17/06:30pm 2.1 -4.6 1.7 97 0.2 NNE 26 39 14 21 - - 0.0
17/06:00pm 2.4 -5.7 0.8 89 0.7 N 33 39 18 21 - - 0.0

Other formats

Comma delimited format used in spreadsheet applications
http://www.bom.gov.au/fwo/IDV60801/IDV60801.94833.axf

JavaScript Object Notation format (JSON) in row-major order
http://www.bom.gov.au/fwo/IDV60801/IDV60801.94833.json

Data quality

Most of these data are generated automatically and are frequently updated. Quality checks on data are not normally performed. It is possible for incorrect values to appear. Refer to information at About Latest Weather Observations and please check the disclaimer before using these data.